Horbury, United Kingdom
Current Conditions -  °F | °C
As of 2:50 AM on Monday 22 Dec 2014 (Local Time) from EGNM Reporting Station
Broken Clouds Broken Clouds  
Wind Chill: 54°   Ceiling: 1800
Heat Index: 54°   Visibility: 6mi
Dew Point: 48°   Wind: 26mph
Humidity: 82%   Direction: 250°WSW
Pressure: 29.74"   Gusts: 45mph
Location:  53.66°N, 1.56°W
Report Text: EGNM 220250Z 25023G39KT 200V280 9999 BKN018 12/09 Q1007
Loading
Personal Weather Stations






























Interactive Weather Map New forecast layout! Learn more

10-Day Weather Forecast

Advertisements
Track Severe Weather on mobile